City Of Vicksburg — WDC2660 — position and weather

sailwx.info

Track history (hours):
 
Tides and Currents Weather Stations Pressure Air Temp Water Temp Dewpoint Dewpoint Depression Visibility Wind Speed Wind Dir Waves Ship Positions

City Of Vicksburg

Owner: Kirby Inland Marine LP, Houston, TX. More information available from US FCC via Universal Licensing System and Coast Guard Vessel Documentation Center.

Last reported at 2016-Jul-21 19:20 UTC. Time now 2016-Jul-28 06:39 UTC.
Position N 32°38' W 091°09'.

Length 50 m; draft 2.9 m.

Type: Ship (hazmat cat A). MMSI: 366996120.

Date/timePositionNaut miles runAvg speedWind from/ knotsBaromVisibWave heightAir tempDewpointWater temp
2016-Jul-21 19:20N 32°38' W 091°09'3 4.3
2016-Jul-21 18:33N 32°35' W 091°07'4 3.8
2016-Jul-21 17:32N 32°31' W 091°06'4 3.9
2016-Jul-21 16:33N 32°28' W 091°06'4 4.3
2016-Jul-21 15:33N 32°26' W 091°01'3 3.3
2016-Jul-21 14:33N 32°23' W 091°00'3 2.6
2016-Jul-21 13:33N 32°21' W 090°58'3 3.4
2016-Jul-21 12:33N 32°18' W 090°55'4 3.6
2016-Jul-21 11:33N 32°16' W 090°58'4 3.7
2016-Jul-21 10:33N 32°12' W 090°59'4 4.1
2016-Jul-21 09:33N 32°08' W 091°00'3 3.5
2016-Jul-21 08:33N 32°08' W 091°04'2 2.3
2016-Jul-21 07:30N 32°05' W 091°05'5 3.9
2016-Jul-21 06:21N 32°01' W 091°05'10 3.2
2016-Jul-21 03:16N 31°54' W 091°12'  
2016-Jul-18 09:33N 31°50' W 091°21'15 6.5
2016-Jul-18 07:10N 31°59' W 091°07'6 7.0
2016-Jul-18 06:22N 32°04' W 091°04'3 3.9
2016-Jul-18 05:30N 32°08' W 091°04'6 6.2
2016-Jul-18 04:33N 32°12' W 090°59'7 7.4
2016-Jul-18 03:33N 32°18' W 090°55'5 5.4
2016-Jul-18 02:33N 32°21' W 091°00'6 6.1
2016-Jul-18 01:33N 32°27' W 091°04'7 6.6
2016-Jul-18 00:33N 32°33' W 091°06'7 6.9
2016-Jul-17 23:33N 32°40' W 091°08'  
Track history (hours):
 
Tides and Currents Weather Stations Pressure Air Temp Water Temp Dewpoint Dewpoint Depression Visibility Wind Speed Wind Dir Waves Ship Positions

City Of Vicksburg

Owner: Kirby Inland Marine LP, Houston, TX. More information available from US FCC via Universal Licensing System and Coast Guard Vessel Documentation Center.

Last reported at 2016-Jul-21 19:20 UTC. Time now 2016-Jul-28 06:39 UTC.
Position N 32°38' W 091°09'.

Length 50 m; draft 2.9 m.

Type: Ship (hazmat cat A). MMSI: 366996120.

Date/timePositionNaut miles runAvg speedWind from/ knotsBaromVisibWave heightAir tempDewpointWater temp
2016-Jul-21 19:20N 32°38' W 091°09'3 4.3
2016-Jul-21 18:33N 32°35' W 091°07'4 3.8
2016-Jul-21 17:32N 32°31' W 091°06'4 3.9
2016-Jul-21 16:33N 32°28' W 091°06'4 4.3
2016-Jul-21 15:33N 32°26' W 091°01'3 3.3
2016-Jul-21 14:33N 32°23' W 091°00'3 2.6
2016-Jul-21 13:33N 32°21' W 090°58'3 3.4
2016-Jul-21 12:33N 32°18' W 090°55'4 3.6
2016-Jul-21 11:33N 32°16' W 090°58'4 3.7
2016-Jul-21 10:33N 32°12' W 090°59'4 4.1
2016-Jul-21 09:33N 32°08' W 091°00'3 3.5
2016-Jul-21 08:33N 32°08' W 091°04'2 2.3
2016-Jul-21 07:30N 32°05' W 091°05'5 3.9
2016-Jul-21 06:21N 32°01' W 091°05'10 3.2
2016-Jul-21 03:16N 31°54' W 091°12'  
2016-Jul-18 09:33N 31°50' W 091°21'15 6.5
2016-Jul-18 07:10N 31°59' W 091°07'6 7.0
2016-Jul-18 06:22N 32°04' W 091°04'3 3.9
2016-Jul-18 05:30N 32°08' W 091°04'6 6.2
2016-Jul-18 04:33N 32°12' W 090°59'7 7.4
2016-Jul-18 03:33N 32°18' W 090°55'5 5.4
2016-Jul-18 02:33N 32°21' W 091°00'6 6.1
2016-Jul-18 01:33N 32°27' W 091°04'7 6.6
2016-Jul-18 00:33N 32°33' W 091°06'7 6.9
2016-Jul-17 23:33N 32°40' W 091°08'  

Dump ship's entire track history